Time;durP1;ratioP1;P1;durP2;ratioP2;P2;SDS_P1;SDS_P2;PMS_P1;PMS_P2;Temp;Humidity;BMP_temperature;BMP_pressure;BME280_temperature;BME280_humidity;BME280_pressure;Samples;Min_cycle;Max_cycle;Signal;HPM_P1;HPM_P2
2023/03/14 00:00:54;;;;;;;5.23;3.27;;;;;;;-143.84;68.25;45193.78;5109478;28;20443;-75
2023/03/14 00:03:21;;;;;;;6.50;3.00;;;;;;;-143.84;68.52;45201.41;5108963;28;21241;-75
2023/03/14 00:05:48;;;;;;;12.57;3.53;;;;;;;-143.84;68.70;45170.94;5108750;28;20439;-75
2023/03/14 00:08:15;;;;;;;3.30;3.00;;;;;;;-143.84;68.65;45199.50;5108705;28;20439;-75
2023/03/14 00:10:42;;;;;;;3.30;3.00;;;;;;;-143.84;68.65;45189.97;5109370;28;20500;-75
2023/03/14 00:13:09;;;;;;;2.73;2.53;;;;;;;-143.84;68.75;45182.38;5109157;28;20427;-75
2023/03/14 00:15:37;;;;;;;3.97;2.77;;;;;;;-143.84;69.02;45161.41;5109037;28;20940;-75
2023/03/14 00:18:05;;;;;;;3.00;2.70;;;;;;;-143.84;68.89;45191.88;5109971;28;20431;-75
2023/03/14 00:20:32;;;;;;;6.87;2.67;;;;;;;-143.84;69.19;45176.66;5112488;28;20863;-75
2023/03/14 00:23:00;;;;;;;9.90;2.90;;;;;;;-143.84;69.08;45174.75;5113970;28;20898;-75
2023/03/14 00:25:27;;;;;;;7.67;2.87;;;;;;;-143.84;69.17;45180.47;5113741;28;20434;-75
2023/03/14 00:27:54;;;;;;;3.77;2.43;;;;;;;-143.84;69.35;45203.31;5113947;28;20435;-75
2023/03/14 00:30:21;;;;;;;3.47;2.73;;;;;;;-143.84;69.03;45189.97;5114053;28;20936;-75
2023/03/14 00:32:48;;;;;;;4.10;2.43;;;;;;;-143.84;69.21;45180.47;5113868;28;20499;-75
2023/03/14 00:35:17;;;;;;;6.63;2.70;;;;;;;-143.84;69.27;45197.59;5113800;28;20435;-75
2023/03/14 00:37:44;;;;;;;4.53;2.83;;;;;;;-143.84;69.16;45172.84;5113514;28;21060;-75
2023/03/14 00:40:12;;;;;;;3.43;2.67;;;;;;;-143.84;69.26;45197.59;5113959;28;20435;-75
2023/03/14 00:42:39;;;;;;;2.57;2.37;;;;;;;-143.84;69.55;45174.75;5113552;28;20491;-75
2023/03/14 00:45:08;;;;;;;5.80;3.10;;;;;;;-143.84;69.60;45169.03;5113612;28;21007;-75
2023/03/14 00:47:35;;;;;;;3.30;3.00;;;;;;;-143.84;69.60;45186.16;5113177;28;20944;-75
2023/03/14 00:50:03;;;;;;;13.73;3.60;;;;;;;-143.84;69.58;45193.78;5113393;28;20504;-75
2023/03/14 00:52:31;;;;;;;2.90;2.70;;;;;;;-143.84;69.47;45210.94;5113400;28;20446;-75
2023/03/14 00:54:59;;;;;;;4.50;3.03;;;;;;;-143.84;69.69;45163.31;5113713;28;20442;-75
2023/03/14 00:57:26;;;;;;;6.17;2.60;;;;;;;-143.84;69.41;45186.16;5113468;28;20447;-75
2023/03/14 00:59:53;;;;;;;4.07;2.87;;;;;;;-143.84;69.60;45167.13;5113218;28;20451;-75
2023/03/14 01:02:20;;;;;;;5.60;2.67;;;;;;;-143.84;69.57;45170.94;5113426;28;20466;-75
2023/03/14 01:04:49;;;;;;;14.03;2.80;;;;;;;-143.84;69.21;45212.84;5113159;28;20475;-75
2023/03/14 01:07:16;;;;;;;6.80;2.80;;;;;;;-143.84;69.24;45170.94;5113165;28;20480;-75
2023/03/14 01:09:45;;;;;;;4.00;2.43;;;;;;;-143.84;69.12;45180.47;5112907;28;20438;-75
2023/03/14 01:12:12;;;;;;;5.80;3.03;;;;;;;-143.84;69.06;45161.41;5112872;28;20451;-75
2023/03/14 01:14:39;;;;;;;6.00;2.77;;;;;;;-143.84;69.12;45201.41;5113010;28;21270;-75
2023/03/14 01:17:06;;;;;;;4.70;3.20;;;;;;;-143.84;69.15;45193.78;5112863;28;20443;-75
2023/03/14 01:19:33;;;;;;;3.27;2.90;;;;;;;-143.84;69.32;45195.69;5112858;28;21121;-75
2023/03/14 01:22:01;;;;;;;5.90;3.00;;;;;;;-143.84;69.17;45148.09;5112914;28;20442;-75
2023/03/14 01:24:29;;;;;;;7.20;3.47;;;;;;;-143.84;69.36;45184.25;5113106;28;20481;-75
2023/03/14 01:26:58;;;;;;;3.33;3.00;;;;;;;-143.84;69.44;45184.25;5113109;28;20952;-76
2023/03/14 01:29:25;;;;;;;5.40;3.27;;;;;;;-143.84;69.43;45188.06;5112910;28;20847;-76
2023/03/14 01:31:52;;;;;;;5.23;2.97;;;;;;;-143.84;69.44;45189.97;5112430;28;20431;-76
2023/03/14 01:34:19;;;;;;;3.23;2.30;;;;;;;-143.84;69.49;45188.06;5112339;28;20439;-76
2023/03/14 01:36:46;;;;;;;3.97;2.83;;;;;;;-143.84;69.66;45189.97;5112732;28;20450;-76
2023/03/14 01:39:14;;;;;;;4.53;2.93;;;;;;;-143.84;69.84;45184.25;5113077;28;20439;-76
2023/03/14 01:41:41;;;;;;;6.43;3.20;;;;;;;-143.84;69.66;45209.03;5112510;28;20500;-76
2023/03/14 01:44:12;;;;;;;3.20;2.90;;;;;;;-143.84;69.88;45209.03;5112782;28;20483;-76
2023/03/14 01:46:41;;;;;;;6.97;2.70;;;;;;;-143.84;69.63;45188.06;5112326;28;20442;-76
2023/03/14 01:49:18;;;;;;;4.33;3.93;;;;;;;-143.84;69.85;45188.06;5112363;28;20854;-76
2023/03/14 01:51:50;;;;;;;3.87;3.07;;;;;;;-143.84;70.16;45165.22;5112731;28;20474;-76
2023/03/14 01:54:22;;;;;;;4.77;3.10;;;;;;;-143.84;70.37;45207.13;5112021;28;20443;-76
2023/03/14 01:56:54;;;;;;;4.20;2.50;;;;;;;-143.84;70.47;45178.56;5112238;28;20446;-76
2023/03/14 01:59:23;;;;;;;5.40;3.83;;;;;;;-143.84;70.33;45180.47;5112281;28;20515;-76
2023/03/14 02:01:52;;;;;;;2.63;2.20;;;;;;;-143.84;70.58;45172.84;5112409;28;20893;-76
2023/03/14 02:04:21;;;;;;;3.60;2.90;;;;;;;-143.84;70.63;45176.66;5112274;28;20474;-76
2023/03/14 02:06:56;;;;;;;5.93;3.13;;;;;;;-143.84;70.97;45189.97;5112234;28;20435;-76
2023/03/14 02:09:23;;;;;;;2.93;2.40;;;;;;;-143.84;71.11;45157.59;5112258;28;20476;-76
2023/03/14 02:11:51;;;;;;;2.43;2.20;;;;;;;-143.84;71.41;45197.59;5112267;28;20473;-76
2023/03/14 02:14:30;;;;;;;3.10;2.90;;;;;;;-143.84;71.40;45197.59;5112737;28;20783;-76
2023/03/14 02:16:58;;;;;;;7.77;3.00;;;;;;;-143.84;71.52;45197.59;5111089;28;21217;-76
2023/03/14 02:19:36;;;;;;;7.77;3.23;;;;;;;-143.84;71.51;45167.13;5111881;28;21213;-76
2023/03/14 02:22:09;;;;;;;3.30;3.07;;;;;;;-143.84;71.58;45216.63;5112000;28;20828;-76
2023/03/14 02:24:43;;;;;;;3.43;2.50;;;;;;;-143.84;71.78;45191.88;5111840;28;20544;-75
2023/03/14 02:27:16;;;;;;;2.60;2.40;;;;;;;-143.84;71.79;45201.41;5111898;28;20441;-76
2023/03/14 02:29:50;;;;;;;2.90;2.60;;;;;;;-143.84;71.85;45212.84;5111832;28;20524;-76
2023/03/14 02:32:18;;;;;;;2.90;2.70;;;;;;;-143.84;72.08;45178.56;5111946;28;20935;-76
2023/03/14 02:34:50;;;;;;;16.17;3.37;;;;;;;-143.84;72.05;45182.38;5111509;28;20431;-76
2023/03/14 02:37:20;;;;;;;7.20;3.23;;;;;;;-143.84;72.20;45186.16;5111851;28;21239;-76
2023/03/14 02:39:49;;;;;;;3.87;3.57;;;;;;;-143.84;72.39;45201.41;5111624;28;20431;-76
2023/03/14 02:42:18;;;;;;;6.37;3.40;;;;;;;-143.84;72.56;45193.78;5110555;28;20439;-76
2023/03/14 02:44:54;;;;;;;2.73;2.53;;;;;;;-143.84;72.67;45195.69;5111431;28;20535;-76
2023/03/14 02:47:30;;;;;;;11.57;3.07;;;;;;;-143.84;72.44;45170.94;5111533;28;20447;-76
2023/03/14 02:50:03;;;;;;;5.43;2.37;;;;;;;-143.84;72.56;45184.25;5111598;28;20932;-76
2023/03/14 02:52:30;;;;;;;3.90;2.30;;;;;;;-143.84;72.95;45186.16;5111470;28;20504;-76
2023/03/14 02:54:57;;;;;;;3.67;2.40;;;;;;;-143.84;72.77;45176.66;5111501;28;20952;-76
2023/03/14 02:57:26;;;;;;;2.73;2.33;;;;;;;-143.84;72.76;45180.47;5111447;28;20492;-76
2023/03/14 02:59:53;;;;;;;2.73;2.53;;;;;;;-143.84;72.51;45184.25;5111037;28;20520;-76
2023/03/14 03:02:20;;;;;;;3.40;3.03;;;;;;;-143.84;72.28;45205.22;5111066;28;21104;-76
2023/03/14 03:04:47;;;;;;;7.07;2.80;;;;;;;-143.84;72.36;45203.31;5111043;28;20483;-76
2023/03/14 03:07:14;;;;;;;2.73;2.53;;;;;;;-143.84;72.26;45199.50;5110713;28;20461;-75
2023/03/14 03:09:41;;;;;;;3.43;2.30;;;;;;;-143.84;72.34;45180.47;5111040;28;21186;-76
2023/03/14 03:12:09;;;;;;;7.47;2.23;;;;;;;-143.84;72.44;45188.06;5111005;28;20859;-76
2023/03/14 03:14:38;;;;;;;3.10;2.90;;;;;;;-143.84;72.75;45193.78;5110606;28;20456;-76
2023/03/14 03:17:05;;;;;;;5.37;2.50;;;;;;;-143.84;72.76;45178.56;5110804;28;20439;-75
2023/03/14 03:19:33;;;;;;;4.37;2.80;;;;;;;-143.84;72.77;45178.56;5110567;28;20491;-76
2023/03/14 03:22:00;;;;;;;3.73;2.90;;;;;;;-143.84;72.85;45184.25;5110366;28;20470;-76
2023/03/14 03:24:28;;;;;;;3.30;2.37;;;;;;;-143.84;72.58;45167.13;5110190;28;20504;-75
2023/03/14 03:26:55;;;;;;;4.50;2.53;;;;;;;-143.84;72.79;45161.41;5109893;28;20566;-75
2023/03/14 03:29:22;;;;;;;3.83;3.40;;;;;;;-143.84;73.39;45170.94;5110538;28;20468;-75
2023/03/14 03:31:50;;;;;;;3.80;2.50;;;;;;;-143.84;73.91;45193.78;5110213;28;20443;-75
2023/03/14 03:34:18;;;;;;;2.97;2.70;;;;;;;-143.84;73.69;45184.25;5110256;28;20445;-75
2023/03/14 03:36:45;;;;;;;5.53;2.77;;;;;;;-143.84;73.93;45188.06;5110461;28;20435;-75
2023/03/14 03:39:12;;;;;;;8.50;3.10;;;;;;;-143.84;73.88;45165.22;5110563;28;20434;-75
2023/03/14 03:41:39;;;;;;;3.33;2.93;;;;;;;-143.84;73.59;45184.25;5110643;28;20473;-76
2023/03/14 03:44:06;;;;;;;3.57;2.30;;;;;;;-143.84;72.99;45184.25;5110524;28;20475;-76
2023/03/14 03:46:33;;;;;;;5.00;3.13;;;;;;;-143.84;72.85;45169.03;5109975;28;20431;-76
2023/03/14 03:49:02;;;;;;;6.30;2.53;;;;;;;-143.84;73.78;45201.41;5109648;28;20508;-76
2023/03/14 03:51:29;;;;;;;5.80;2.50;;;;;;;-143.84;74.15;45165.22;5110215;28;20866;-75
2023/03/14 03:53:57;;;;;;;3.23;2.93;;;;;;;-143.84;73.79;45205.22;5109492;28;20867;-75
2023/03/14 03:56:25;;;;;;;3.30;3.07;;;;;;;-143.84;73.63;45189.97;5109742;28;20488;-75
2023/03/14 03:58:52;;;;;;;4.13;2.83;;;;;;;-143.84;73.56;45167.13;5110023;28;20454;-75
2023/03/14 04:01:19;;;;;;;3.53;2.50;;;;;;;-143.84;73.21;45167.13;5109671;28;21002;-75
2023/03/14 04:03:46;;;;;;;2.97;2.77;;;;;;;-143.84;72.93;45189.97;5109518;28;20996;-75
2023/03/14 04:06:15;;;;;;;5.03;2.83;;;;;;;-143.84;72.50;45209.03;5109705;28;20479;-75
2023/03/14 04:08:43;;;;;;;3.67;3.10;;;;;;;-143.84;72.19;45193.78;5109802;28;20443;-75
2023/03/14 04:11:10;;;;;;;18.63;3.33;;;;;;;-143.84;72.20;45167.13;5109456;28;20932;-75
2023/03/14 04:13:37;;;;;;;4.20;3.03;;;;;;;-143.84;72.80;45212.84;5109449;28;21009;-75
2023/03/14 04:16:05;;;;;;;11.70;3.37;;;;;;;-143.84;73.60;45205.22;5109721;28;20492;-75
2023/03/14 04:18:32;;;;;;;10.83;4.40;;;;;;;-143.84;74.16;45186.16;5110155;28;20427;-75
2023/03/14 04:20:59;;;;;;;5.37;4.37;;;;;;;-143.84;74.17;45188.06;5109659;28;21025;-75
2023/03/14 04:23:27;;;;;;;3.67;3.37;;;;;;;-143.84;74.59;45210.94;5108707;28;21163;-76
2023/03/14 04:25:55;;;;;;;10.03;4.70;;;;;;;-143.84;74.28;45174.75;5095288;28;21090;-75
2023/03/14 04:28:22;;;;;;;5.70;4.37;;;;;;;-143.84;74.02;45174.75;5090218;28;20504;-73
2023/03/14 04:30:49;;;;;;;6.10;4.77;;;;;;;-143.84;73.98;45184.25;5088916;28;20438;-74
2023/03/14 04:33:17;;;;;;;16.23;5.13;;;;;;;-143.84;74.74;45199.50;5088343;28;20440;-74
2023/03/14 04:35:44;;;;;;;11.10;4.80;;;;;;;-143.84;74.72;45189.97;5089152;28;20446;-75
2023/03/14 04:38:12;;;;;;;8.43;5.30;;;;;;;-143.84;74.87;45191.88;5104000;28;20478;-75
2023/03/14 04:40:42;;;;;;;6.03;5.43;;;;;;;-143.84;74.50;45174.75;5109724;28;20441;-75
2023/03/14 04:43:10;;;;;;;7.37;4.70;;;;;;;-143.84;74.81;45214.72;5109799;28;20443;-75
2023/03/14 04:45:37;;;;;;;10.20;5.30;;;;;;;-143.84;75.36;45170.94;5109672;28;20562;-76
2023/03/14 04:48:04;;;;;;;5.70;4.53;;;;;;;-143.84;75.23;45151.91;5109919;28;20439;-76
2023/03/14 04:50:32;;;;;;;8.80;4.90;;;;;;;-143.84;75.27;45140.47;5110206;28;20439;-76
2023/03/14 04:52:59;;;;;;;9.43;5.13;;;;;;;-143.84;75.00;45195.69;5110289;28;20492;-76
2023/03/14 04:55:26;;;;;;;12.97;8.00;;;;;;;-143.84;74.84;45172.84;5110595;28;20470;-73
2023/03/14 04:57:54;;;;;;;19.00;8.43;;;;;;;-143.84;74.87;45189.97;5109907;28;20454;-72
2023/03/14 05:00:22;;;;;;;10.77;6.10;;;;;;;-143.84;75.03;45159.50;5110847;28;20447;-70
2023/03/14 05:02:49;;;;;;;8.93;5.10;;;;;;;-143.84;75.39;45189.97;5109679;28;20999;-70
2023/03/14 05:05:16;;;;;;;10.30;5.70;;;;;;;-143.84;75.88;45169.03;5109988;28;20945;-70
2023/03/14 05:07:44;;;;;;;6.00;3.97;;;;;;;-143.84;75.95;45151.91;5113542;28;20447;-70
2023/03/14 05:10:12;;;;;;;8.00;5.07;;;;;;;-143.84;76.33;45189.97;5113388;28;20842;-70
2023/03/14 05:12:39;;;;;;;6.50;4.53;;;;;;;-143.84;76.26;45189.97;5113336;28;20435;-70
2023/03/14 05:15:09;;;;;;;5.80;4.80;;;;;;;-143.84;77.74;45167.13;5113601;28;20450;-70
2023/03/14 05:17:36;;;;;;;7.20;4.20;;;;;;;-143.84;76.79;45174.75;5113518;28;20866;-70
2023/03/14 05:20:07;;;;;;;6.80;4.70;;;;;;;-143.84;75.78;45169.03;5113314;28;20511;-73
2023/03/14 05:22:35;;;;;;;12.20;3.67;;;;;;;-143.84;74.90;45170.94;5114639;28;20480;-73
2023/03/14 05:25:02;;;;;;;6.07;3.20;;;;;;;-143.84;73.52;45184.25;5114493;28;20474;-71
2023/03/14 05:27:29;;;;;;;6.97;2.50;;;;;;;-143.84;73.01;45159.50;5114313;28;20429;-73
2023/03/14 05:29:56;;;;;;;12.47;2.70;;;;;;;-143.84;72.78;45151.91;5110648;28;20436;-72
2023/03/14 05:32:25;;;;;;;2.73;2.50;;;;;;;-143.84;71.96;45144.28;5114310;28;20492;-73
2023/03/14 05:34:52;;;;;;;3.70;3.40;;;;;;;-143.84;70.48;45176.66;5110407;28;20435;-74
2023/03/14 05:37:19;;;;;;;3.93;3.07;;;;;;;-143.84;69.14;45184.25;5112846;28;20962;-74
2023/03/14 05:39:46;;;;;;;3.37;2.50;;;;;;;-143.84;68.50;45150.00;5112912;28;20435;-74
2023/03/14 05:42:13;;;;;;;5.87;2.20;;;;;;;-143.84;68.49;45176.66;5112412;28;20499;-74
2023/03/14 05:44:40;;;;;;;3.33;2.30;;;;;;;-143.84;66.25;45161.41;5112529;28;20512;-74
2023/03/14 05:47:07;;;;;;;2.47;2.17;;;;;;;-143.84;66.17;45146.19;5112086;28;20489;-74
2023/03/14 05:49:36;;;;;;;3.20;2.30;;;;;;;-143.84;63.52;45142.38;5112542;28;20452;-74
2023/03/14 05:52:03;;;;;;;5.10;2.70;;;;;;;-143.84;61.63;45167.13;5112220;28;20447;-74
2023/03/14 05:54:30;;;;;;;3.30;2.40;;;;;;;-143.84;60.69;45150.00;5112107;28;20440;-73
2023/03/14 05:56:57;;;;;;;3.33;2.60;;;;;;;-143.84;59.76;45138.56;5111953;28;21084;-73
2023/03/14 05:59:24;;;;;;;5.57;2.63;;;;;;;-143.84;59.33;45151.91;5110456;28;20448;-73
2023/03/14 06:01:51;;;;;;;2.93;1.47;;;;;;;-143.84;58.56;45155.69;5110659;28;20429;-73
2023/03/14 06:04:19;;;;;;;2.10;1.90;;;;;;;-143.84;56.42;45150.00;5110610;28;20843;-74
2023/03/14 06:06:47;;;;;;;4.10;2.50;;;;;;;-143.84;56.09;45159.50;5110634;28;20542;-74
2023/03/14 06:09:14;;;;;;;2.90;2.40;;;;;;;-143.84;54.89;45129.03;5111069;28;20453;-74
2023/03/14 06:11:41;;;;;;;4.00;2.17;;;;;;;-143.84;54.54;45132.84;5110737;28;20511;-74
2023/03/14 06:14:08;;;;;;;2.67;1.87;;;;;;;-143.84;53.24;45159.50;5111531;28;20446;-74
2023/03/14 06:16:36;;;;;;;7.60;3.20;;;;;;;-143.84;53.06;45132.84;5111962;28;21116;-74
2023/03/14 06:19:03;;;;;;;2.60;1.83;;;;;;;-143.84;50.70;45142.38;5111018;28;20435;-74
2023/03/14 06:21:30;;;;;;;2.60;2.20;;;;;;;-143.84;50.56;45140.47;5111441;28;20445;-74
2023/03/14 06:23:58;;;;;;;2.43;2.23;;;;;;;-143.84;49.82;45148.09;5111763;28;20487;-74
2023/03/14 06:26:25;;;;;;;5.33;2.23;;;;;;;-143.84;50.55;45129.03;5111833;28;20478;-74
2023/03/14 06:28:53;;;;;;;5.33;2.33;;;;;;;-143.84;51.25;45142.38;5111708;28;20444;-74
2023/03/14 06:31:20;;;;;;;3.00;1.80;;;;;;;-143.84;49.68;45129.03;5111694;28;20863;-74
2023/03/14 06:33:47;;;;;;;14.63;3.07;;;;;;;-143.84;49.89;45140.47;5111123;28;20491;-74
2023/03/14 06:36:14;;;;;;;3.40;1.80;;;;;;;-143.84;50.01;45136.66;5110804;28;20446;-74
2023/03/14 06:38:42;;;;;;;5.50;1.60;;;;;;;-143.84;48.79;45125.22;5110578;28;21041;-75
2023/03/14 06:41:10;;;;;;;3.63;1.40;;;;;;;-143.84;49.10;45113.81;5111299;28;20445;-74
2023/03/14 06:43:37;;;;;;;6.80;1.80;;;;;;;-143.84;49.28;45125.22;5111207;28;20442;-74
2023/03/14 06:46:05;;;;;;;4.80;1.60;;;;;;;-143.84;49.16;45129.03;5111474;28;20469;-74
2023/03/14 06:48:32;;;;;;;5.20;1.80;;;;;;;-143.84;49.37;45129.03;5111065;28;20996;-74
2023/03/14 06:50:59;;;;;;;2.50;1.33;;;;;;;-143.84;48.63;45123.34;5110996;28;20556;-74
2023/03/14 06:53:26;;;;;;;4.57;1.67;;;;;;;-143.84;48.64;45117.63;5102931;28;21215;-74
2023/03/14 06:55:53;;;;;;;7.20;1.30;;;;;;;-143.84;48.99;45106.19;5111107;28;20458;-74
2023/03/14 06:58:22;;;;;;;5.73;1.30;;;;;;;-143.84;49.02;45153.81;5110880;28;20449;-74
2023/03/14 07:00:49;;;;;;;9.33;1.90;;;;;;;-143.84;49.45;45184.25;5110759;28;20443;-74
2023/03/14 07:03:16;;;;;;;2.67;1.50;;;;;;;-143.84;48.58;45106.19;5110696;28;20446;-74
2023/03/14 07:05:43;;;;;;;4.43;1.80;;;;;;;-143.84;49.27;45127.13;5110797;28;20478;-74
2023/03/14 07:08:10;;;;;;;4.50;1.87;;;;;;;-143.84;48.12;45110.00;5110983;28;21285;-74
2023/03/14 07:10:38;;;;;;;4.90;1.63;;;;;;;-143.84;48.29;45153.81;5111364;28;20431;-75
2023/03/14 07:13:05;;;;;;;1.40;1.30;;;;;;;-143.84;48.54;45132.84;5110845;28;20443;-75
2023/03/14 07:15:34;;;;;;;4.67;1.70;;;;;;;-143.84;48.14;45138.56;5110749;28;20484;-74
2023/03/14 07:18:01;;;;;;;4.10;1.67;;;;;;;-143.84;48.89;45121.44;5110506;28;20782;-74
2023/03/14 07:20:28;;;;;;;7.93;3.50;;;;;;;-143.84;48.17;45151.91;5110474;28;20440;-74
2023/03/14 07:22:55;;;;;;;1.47;1.23;;;;;;;-143.84;47.92;45144.28;5110690;28;20468;-74
2023/03/14 07:25:22;;;;;;;2.67;1.60;;;;;;;-143.84;48.39;45138.56;5110165;28;20539;-74
2023/03/14 07:27:49;;;;;;;5.17;1.77;;;;;;;-143.84;47.86;45176.66;5110574;28;21021;-74
2023/03/14 07:30:18;;;;;;;3.40;1.17;;;;;;;-143.84;47.86;45115.72;5109937;28;20439;-74
2023/03/14 07:32:46;;;;;;;2.17;1.93;;;;;;;-143.84;47.61;45134.75;5110375;28;20439;-74
2023/03/14 07:35:13;;;;;;;4.10;1.80;;;;;;;-143.84;47.92;45121.44;5110237;28;20508;-74
2023/03/14 07:37:40;;;;;;;5.10;1.60;;;;;;;-143.84;50.19;45108.09;5109669;28;21072;-74
2023/03/14 07:40:10;;;;;;;2.83;1.40;;;;;;;-143.84;49.23;45130.94;5109850;28;20437;-74
2023/03/14 07:42:37;;;;;;;6.53;1.43;;;;;;;-143.84;49.25;45153.81;5110327;28;20439;-74
2023/03/14 07:45:05;;;;;;;4.07;1.93;;;;;;;-143.84;49.14;45172.84;5110222;28;20514;-74
2023/03/14 07:47:32;;;;;;;4.50;1.97;;;;;;;-143.84;49.18;45125.22;5110043;28;20435;-74
2023/03/14 07:50:01;;;;;;;4.60;1.67;;;;;;;-143.84;49.06;45132.84;5110439;28;20495;-75
2023/03/14 07:52:28;;;;;;;4.47;1.90;;;;;;;-143.84;49.19;45140.47;5110461;28;20876;-74
2023/03/14 07:54:55;;;;;;;5.20;1.40;;;;;;;-143.84;47.69;45119.53;5109808;28;20446;-73
2023/03/14 07:57:22;;;;;;;2.97;1.40;;;;;;;-143.84;48.14;45130.94;5109978;28;20446;-73
2023/03/14 07:59:49;;;;;;;7.23;1.77;;;;;;;-143.84;47.48;45121.44;5110559;28;20450;-74
2023/03/14 08:02:17;;;;;;;3.70;1.60;;;;;;;-143.84;47.61;45138.56;5110080;28;20507;-74
2023/03/14 08:04:45;;;;;;;4.07;1.30;;;;;;;-143.84;47.32;45136.66;5109515;28;20447;-74
2023/03/14 08:07:13;;;;;;;3.67;1.33;;;;;;;-143.84;47.56;45115.72;5109565;28;20479;-74
2023/03/14 08:09:40;;;;;;;2.03;1.33;;;;;;;-143.84;47.40;45148.09;5108804;28;20875;-74
2023/03/14 08:12:08;;;;;;;11.33;1.67;;;;;;;-143.84;47.89;45130.94;5109280;28;20439;-74
2023/03/14 08:14:35;;;;;;;4.20;2.00;;;;;;;-143.84;48.06;45130.94;5109460;28;20443;-74
2023/03/14 08:17:02;;;;;;;6.77;2.50;;;;;;;-143.84;48.55;45087.16;5109415;28;21256;-74
2023/03/14 08:19:29;;;;;;;4.33;1.53;;;;;;;-143.84;47.98;45138.56;5109395;28;20447;-74
2023/03/14 08:21:56;;;;;;;2.17;1.43;;;;;;;-143.84;47.03;45115.72;5109392;28;20438;-74
2023/03/14 08:24:25;;;;;;;4.20;1.40;;;;;;;-143.84;47.74;45132.84;5109602;28;20447;-74
2023/03/14 08:26:52;;;;;;;3.23;1.60;;;;;;;-143.84;48.68;45117.63;5109476;28;20879;-74
2023/03/14 08:29:19;;;;;;;4.50;1.40;;;;;;;-143.84;47.05;45161.41;5109531;28;20435;-74
2023/03/14 08:31:48;;;;;;;4.20;1.60;;;;;;;-143.84;46.58;45085.25;5109415;28;21239;-74
2023/03/14 08:34:16;;;;;;;3.07;2.00;;;;;;;-143.84;47.32;45130.94;5109451;28;20471;-74
2023/03/14 08:36:43;;;;;;;2.63;1.30;;;;;;;-143.84;47.09;45090.97;5108795;28;21166;-74
2023/03/14 08:39:10;;;;;;;1.83;1.43;;;;;;;-143.84;46.09;45115.72;5109176;28;20447;-74
2023/03/14 08:41:40;;;;;;;2.90;1.57;;;;;;;-143.84;45.93;45115.72;5112008;28;20473;-74
2023/03/14 08:44:08;;;;;;;2.27;1.07;;;;;;;-143.84;45.94;45123.34;5113757;28;20439;-74
2023/03/14 08:46:36;;;;;;;3.73;1.13;;;;;;;-143.84;47.79;45104.28;5112070;28;21027;-75
2023/03/14 08:49:03;;;;;;;6.10;1.40;;;;;;;-143.84;46.92;45092.88;5112306;28;20954;-74
2023/03/14 08:51:30;;;;;;;2.20;1.20;;;;;;;-143.84;46.79;45129.03;5112600;28;20439;-74
2023/03/14 08:53:57;;;;;;;7.43;2.20;;;;;;;-143.84;47.30;45111.91;5112669;28;20443;-74
2023/03/14 08:56:24;;;;;;;2.60;1.17;;;;;;;-143.84;46.33;45136.66;5112323;28;20953;-74
2023/03/14 08:58:53;;;;;;;4.70;1.70;;;;;;;-143.84;46.31;45123.34;5112689;28;20446;-74
2023/03/14 09:01:21;;;;;;;3.73;1.53;;;;;;;-143.84;46.83;45111.91;5111066;28;20455;-74
2023/03/14 09:03:49;;;;;;;6.20;2.37;;;;;;;-143.84;46.92;45106.19;5111144;28;20443;-74
2023/03/14 09:06:17;;;;;;;4.83;1.67;;;;;;;-143.84;46.60;45123.34;5111640;28;20932;-73
2023/03/14 09:08:45;;;;;;;2.27;1.30;;;;;;;-143.84;46.61;45125.22;5111132;28;20440;-74
2023/03/14 09:11:12;;;;;;;4.00;1.17;;;;;;;-143.84;45.13;45119.53;5111167;28;20450;-74
2023/03/14 09:13:40;;;;;;;2.60;1.57;;;;;;;-143.84;46.29;45134.75;5111421;28;20451;-72
2023/03/14 09:16:10;;;;;;;2.60;1.77;;;;;;;-143.84;45.86;45117.63;5111508;28;21081;-74
2023/03/14 09:18:37;;;;;;;3.63;1.40;;;;;;;-143.84;46.60;45125.22;5112493;28;21009;-73
2023/03/14 09:21:05;;;;;;;2.40;1.30;;;;;;;-143.84;47.26;45104.28;5112632;28;20437;-74
2023/03/14 09:23:32;;;;;;;7.23;1.60;;;;;;;-143.84;47.01;45119.53;5113099;28;20501;-74
2023/03/14 09:26:00;;;;;;;4.80;1.53;;;;;;;-143.84;46.54;45146.19;5111997;28;20481;-75
2023/03/14 09:28:28;;;;;;;131.67;62.30;;;;;;;-143.84;48.20;45115.72;5112798;28;20436;-75
2023/03/14 09:30:55;;;;;;;5.73;2.90;;;;;;;-143.84;46.09;45136.66;5112388;28;20970;-74
2023/03/14 09:33:23;;;;;;;3.80;2.20;;;;;;;-143.84;47.13;45087.16;5112502;28;20446;-74
2023/03/14 09:35:51;;;;;;;2.87;1.50;;;;;;;-143.84;46.27;45089.06;5112757;28;20855;-74
2023/03/14 09:38:20;;;;;;;3.47;1.73;;;;;;;-143.84;47.20;45111.91;5112369;28;20529;-74
2023/03/14 09:40:48;;;;;;;5.00;2.03;;;;;;;-143.84;47.20;45104.28;5112624;28;20441;-74
2023/03/14 09:43:17;;;;;;;2.83;1.80;;;;;;;-143.84;44.93;45119.53;5112371;28;20458;-74
2023/03/14 09:45:47;;;;;;;13.10;2.60;;;;;;;-143.84;46.32;45096.66;5112093;28;20447;-74
2023/03/14 09:48:18;;;;;;;3.33;1.80;;;;;;;-143.84;44.90;45132.84;5112477;28;20434;-74
2023/03/14 09:50:52;;;;;;;8.10;1.90;;;;;;;-143.84;45.01;45115.72;5111976;28;20439;-74
2023/03/14 09:53:21;;;;;;;3.23;2.07;;;;;;;-143.84;45.78;45092.88;5110175;28;20975;-74
2023/03/14 09:55:51;;;;;;;3.43;1.57;;;;;;;-143.84;45.97;45111.91;5111659;28;20436;-74
2023/03/14 09:58:21;;;;;;;1.40;1.10;;;;;;;-143.84;46.07;45123.34;5111857;28;20492;-75
2023/03/14 10:00:51;;;;;;;3.33;1.50;;;;;;;-143.84;47.53;45123.34;5111643;28;20497;-75
2023/03/14 10:03:26;;;;;;;7.23;1.80;;;;;;;-143.84;47.12;45100.47;5110274;28;20443;-75
2023/03/14 10:05:57;;;;;;;3.17;1.70;;;;;;;-143.84;46.61;45110.00;5110864;28;20445;-75
2023/03/14 10:08:24;;;;;;;3.30;1.10;;;;;;;-143.84;46.75;45130.94;5112077;28;20786;-75
2023/03/14 10:10:52;;;;;;;3.67;1.77;;;;;;;-143.84;47.18;45094.78;5112217;28;20442;-75
2023/03/14 10:13:24;;;;;;;2.00;1.40;;;;;;;-143.84;47.36;45129.03;5112149;28;20470;-75
2023/03/14 10:15:55;;;;;;;2.73;1.60;;;;;;;-143.84;47.17;45125.22;5112178;28;20476;-75
2023/03/14 10:18:24;;;;;;;2.20;1.67;;;;;;;-143.84;47.29;45092.88;5095119;28;20452;-75
2023/03/14 10:21:02;;;;;;;6.03;1.77;;;;;;;-143.84;46.61;45125.22;5111205;28;20492;-75
2023/03/14 10:23:34;;;;;;;4.70;1.73;;;;;;;-143.84;48.20;45140.47;5111775;28;20467;-75
2023/03/14 10:26:07;;;;;;;2.57;1.60;;;;;;;-143.84;45.77;45115.72;5101012;28;20517;-75
2023/03/14 10:28:38;;;;;;;3.10;1.80;;;;;;;-143.84;47.29;45115.72;5091506;28;20962;-75
2023/03/14 10:31:06;;;;;;;4.83;1.60;;;;;;;-143.84;50.38;45119.53;5091238;28;20444;-75
2023/03/14 10:33:35;;;;;;;2.60;1.13;;;;;;;-143.84;49.31;45134.75;5091138;28;20866;-75
2023/03/14 10:36:04;;;;;;;2.13;1.20;;;;;;;-143.84;48.19;45100.47;5091020;28;20449;-75
2023/03/14 10:38:34;;;;;;;1.60;1.30;;;;;;;-143.84;48.68;45136.66;5108074;28;20474;-75
2023/03/14 10:41:02;;;;;;;3.70;1.70;;;;;;;-143.84;46.50;45106.19;5111432;28;20435;-75
2023/03/14 10:43:33;;;;;;;10.07;3.33;;;;;;;-143.84;46.22;45106.19;5110386;28;20973;-75
2023/03/14 10:46:02;;;;;;;5.90;1.90;;;;;;;-143.84;47.54;45110.00;5110615;28;20447;-75
2023/03/14 10:48:35;;;;;;;2.80;1.53;;;;;;;-143.84;48.51;45100.47;5111207;28;20528;-75
2023/03/14 10:51:08;;;;;;;5.27;3.77;;;;;;;-143.84;47.13;45110.00;5111104;28;21256;-75
2023/03/14 10:53:41;;;;;;;3.10;2.20;;;;;;;-143.84;46.08;45079.53;5111454;28;20451;-75
2023/03/14 10:56:12;;;;;;;30.73;14.73;;;;;;;-143.84;43.07;45125.22;5111271;28;20504;-75
2023/03/14 10:58:42;;;;;;;2.50;2.30;;;;;;;-143.84;46.11;45096.66;5110965;28;20470;-75
2023/03/14 11:01:32;;;;;;;4.83;1.50;;;;;;;-143.84;43.78;45117.63;5111046;28;20502;-75
2023/03/14 11:04:03;;;;;;;3.73;1.70;;;;;;;-143.84;42.53;45136.66;5110685;28;20816;-75
2023/03/14 11:06:40;;;;;;;1.30;1.20;;;;;;;-143.84;40.34;45083.34;5110919;28;20477;-75
2023/03/14 11:09:19;;;;;;;1.83;1.40;;;;;;;-143.84;42.12;45108.09;5109897;28;20516;-75
2023/03/14 11:11:48;;;;;;;11.60;1.67;;;;;;;-143.84;43.15;45110.00;5110065;28;21382;-75
2023/03/14 11:14:29;;;;;;;3.67;1.60;;;;;;;-143.84;42.98;45089.06;5110977;28;20952;-75
2023/03/14 11:17:03;;;;;;;6.13;2.00;;;;;;;-143.84;44.92;45096.66;5110702;28;20526;-75
2023/03/14 11:19:58;;;;;;;6.03;2.00;;;;;;;-143.84;43.68;45119.53;5110534;28;21049;-75
2023/03/14 11:22:33;;;;;;;3.57;1.57;;;;;;;-143.84;44.24;45102.38;5110441;28;20439;-75